Insula Oya 2 — FUKI — position and weather

sailwx.info

Track history (hours):
 
Tides and Currents Weather Stations Pressure Air Temp Water Temp Dewpoint Dewpoint Depression Visibility Wind Speed Wind Dir Waves Ship Positions

Insula Oya 2

Last reported at 2015-Aug-30 01:27 UTC. Time now 2015-Aug-30 03:35 UTC.
Position N 46°44' W 002°21'.

Length 50 m; draft 2.5 m.

Type: Passenger vessel. MMSI: 227004900.

Date/timePositionNaut miles runAvg speedWind from/ knotsBaromVisibWave heightAir tempDewpointWater temp
2015-Aug-30 01:27N 46°44' W 002°21'12 0.6
2015-Aug-29 04:28N 46°53' W 002°11'2 2.2
2015-Aug-29 03:33N 46°54' W 002°08'0 0.0
2015-Aug-29 02:28N 46°54' W 002°08'0 0.0
2015-Aug-29 01:32N 46°54' W 002°08'0 0.0
2015-Aug-29 00:33N 46°54' W 002°08'0 0.0
2015-Aug-28 23:27N 46°54' W 002°08'0 0.0
2015-Aug-28 22:27N 46°54' W 002°08'0 0.0
2015-Aug-28 21:31N 46°54' W 002°08'0 0.0
2015-Aug-28 20:32N 46°54' W 002°08'0 0.0
2015-Aug-28 19:33N 46°54' W 002°08'0 0.0
2015-Aug-28 18:33N 46°54' W 002°08'0 0.0
2015-Aug-28 17:33N 46°54' W 002°08'0 0.0
2015-Aug-28 16:24N 46°54' W 002°08'0 0.0
2015-Aug-28 15:23N 46°54' W 002°08'0 0.0
2015-Aug-28 14:30N 46°54' W 002°08'7 0.7
2015-Aug-28 04:08N 46°48' W 002°16'712.5
2015-Aug-28 03:33N 46°54' W 002°08'0 0.1
2015-Aug-28 02:18N 46°54' W 002°08'0 0.0
2015-Aug-28 01:27N 46°54' W 002°08'0 0.0
2015-Aug-28 00:28N 46°54' W 002°08'0 0.0
2015-Aug-27 03:28N 46°54' W 002°08'0 0.0
2015-Aug-27 00:30N 46°54' W 002°08'0 0.0
2015-Aug-26 23:32N 46°54' W 002°08'0 0.0
2015-Aug-26 22:27N 46°54' W 002°08'0 0.0
2015-Aug-26 21:28N 46°54' W 002°08'0 0.0
2015-Aug-26 20:32N 46°54' W 002°08'0 0.0
2015-Aug-26 19:33N 46°54' W 002°08'0 0.0
2015-Aug-26 18:33N 46°54' W 002°08'0 0.0
2015-Aug-26 17:31N 46°54' W 002°08'0 0.0
2015-Aug-26 16:33N 46°54' W 002°08'7 1.3
2015-Aug-26 11:22N 46°49' W 002°15'  
2015-Aug-22 07:11N 46°44' W 002°21'913.1
2015-Aug-22 06:32N 46°51' W 002°14'5 4.8
2015-Aug-22 05:33N 46°54' W 002°08'0 0.0
2015-Aug-22 04:34N 46°54' W 002°08'0 0.0
2015-Aug-22 03:33N 46°54' W 002°08'0 0.0
2015-Aug-22 02:33N 46°54' W 002°08'0 0.0
2015-Aug-22 01:33N 46°54' W 002°08'0 0.0
2015-Aug-22 00:33N 46°54' W 002°08'0 0.0
2015-Aug-21 23:33N 46°54' W 002°08'0 0.0
2015-Aug-21 22:33N 46°54' W 002°08'0 0.0
2015-Aug-21 21:34N 46°54' W 002°08'0 0.0
2015-Aug-21 20:34N 46°54' W 002°08'0 0.0
2015-Aug-21 19:33N 46°54' W 002°08'0 0.0
2015-Aug-21 18:33N 46°54' W 002°08'0 0.0
2015-Aug-21 17:32N 46°54' W 002°08'0 0.0
2015-Aug-21 16:33N 46°54' W 002°08'0 0.0
2015-Aug-21 15:33N 46°54' W 002°08'0 0.0
2015-Aug-21 14:33N 46°54' W 002°08'0 0.0
2015-Aug-21 13:28N 46°54' W 002°08'0 0.0
2015-Aug-21 12:32N 46°54' W 002°08'0 0.0
2015-Aug-21 11:34N 46°54' W 002°08'0 0.0
2015-Aug-21 10:34N 46°54' W 002°08'2 1.8
2015-Aug-21 09:33N 46°53' W 002°11'1212.2
2015-Aug-21 08:34N 46°44' W 002°21'0 0.0
2015-Aug-21 07:32N 46°44' W 002°21'0 0.0
2015-Aug-21 06:32N 46°44' W 002°21'8 8.2
2015-Aug-21 05:34N 46°50' W 002°14'5 5.4
2015-Aug-21 04:33N 46°54' W 002°08'0 0.0
2015-Aug-21 03:34N 46°54' W 002°08'0 0.0
2015-Aug-21 02:33N 46°54' W 002°08'0 0.0
2015-Aug-21 01:33N 46°54' W 002°08'0 0.0
2015-Aug-21 00:34N 46°54' W 002°08'0 0.0
2015-Aug-20 23:34N 46°54' W 002°08'0 0.0
2015-Aug-20 22:33N 46°54' W 002°08'0 0.0
2015-Aug-20 21:33N 46°54' W 002°08'0 0.0
2015-Aug-20 20:33N 46°54' W 002°08'0 0.0
2015-Aug-20 19:33N 46°54' W 002°08'0 0.0
2015-Aug-20 18:33N 46°54' W 002°08'0 0.0
2015-Aug-20 17:34N 46°54' W 002°08'5 0.5
2015-Aug-20 07:27N 46°51' W 002°14'5 4.9
2015-Aug-20 06:27N 46°54' W 002°08'0 0.0
2015-Aug-20 05:33N 46°54' W 002°08'0 0.0
2015-Aug-20 04:33N 46°54' W 002°08'0 0.0
2015-Aug-20 03:33N 46°54' W 002°08'0 0.0
2015-Aug-20 02:34N 46°54' W 002°08'0 0.0
2015-Aug-20 01:34N 46°54' W 002°08'  
Track history (hours):
 
Tides and Currents Weather Stations Pressure Air Temp Water Temp Dewpoint Dewpoint Depression Visibility Wind Speed Wind Dir Waves Ship Positions

Insula Oya 2

Last reported at 2015-Aug-30 01:27 UTC. Time now 2015-Aug-30 03:35 UTC.
Position N 46°44' W 002°21'.

Length 50 m; draft 2.5 m.

Type: Passenger vessel. MMSI: 227004900.

Date/timePositionNaut miles runAvg speedWind from/ knotsBaromVisibWave heightAir tempDewpointWater temp
2015-Aug-30 01:27N 46°44' W 002°21'12 0.6
2015-Aug-29 04:28N 46°53' W 002°11'2 2.2
2015-Aug-29 03:33N 46°54' W 002°08'0 0.0
2015-Aug-29 02:28N 46°54' W 002°08'0 0.0
2015-Aug-29 01:32N 46°54' W 002°08'0 0.0
2015-Aug-29 00:33N 46°54' W 002°08'0 0.0
2015-Aug-28 23:27N 46°54' W 002°08'0 0.0
2015-Aug-28 22:27N 46°54' W 002°08'0 0.0
2015-Aug-28 21:31N 46°54' W 002°08'0 0.0
2015-Aug-28 20:32N 46°54' W 002°08'0 0.0
2015-Aug-28 19:33N 46°54' W 002°08'0 0.0
2015-Aug-28 18:33N 46°54' W 002°08'0 0.0
2015-Aug-28 17:33N 46°54' W 002°08'0 0.0
2015-Aug-28 16:24N 46°54' W 002°08'0 0.0
2015-Aug-28 15:23N 46°54' W 002°08'0 0.0
2015-Aug-28 14:30N 46°54' W 002°08'7 0.7
2015-Aug-28 04:08N 46°48' W 002°16'712.5
2015-Aug-28 03:33N 46°54' W 002°08'0 0.1
2015-Aug-28 02:18N 46°54' W 002°08'0 0.0
2015-Aug-28 01:27N 46°54' W 002°08'0 0.0
2015-Aug-28 00:28N 46°54' W 002°08'0 0.0
2015-Aug-27 03:28N 46°54' W 002°08'0 0.0
2015-Aug-27 00:30N 46°54' W 002°08'0 0.0
2015-Aug-26 23:32N 46°54' W 002°08'0 0.0
2015-Aug-26 22:27N 46°54' W 002°08'0 0.0
2015-Aug-26 21:28N 46°54' W 002°08'0 0.0
2015-Aug-26 20:32N 46°54' W 002°08'0 0.0
2015-Aug-26 19:33N 46°54' W 002°08'0 0.0
2015-Aug-26 18:33N 46°54' W 002°08'0 0.0
2015-Aug-26 17:31N 46°54' W 002°08'0 0.0
2015-Aug-26 16:33N 46°54' W 002°08'7 1.3
2015-Aug-26 11:22N 46°49' W 002°15'  
2015-Aug-22 07:11N 46°44' W 002°21'913.1
2015-Aug-22 06:32N 46°51' W 002°14'5 4.8
2015-Aug-22 05:33N 46°54' W 002°08'0 0.0
2015-Aug-22 04:34N 46°54' W 002°08'0 0.0
2015-Aug-22 03:33N 46°54' W 002°08'0 0.0
2015-Aug-22 02:33N 46°54' W 002°08'0 0.0
2015-Aug-22 01:33N 46°54' W 002°08'0 0.0
2015-Aug-22 00:33N 46°54' W 002°08'0 0.0
2015-Aug-21 23:33N 46°54' W 002°08'0 0.0
2015-Aug-21 22:33N 46°54' W 002°08'0 0.0
2015-Aug-21 21:34N 46°54' W 002°08'0 0.0
2015-Aug-21 20:34N 46°54' W 002°08'0 0.0
2015-Aug-21 19:33N 46°54' W 002°08'0 0.0
2015-Aug-21 18:33N 46°54' W 002°08'0 0.0
2015-Aug-21 17:32N 46°54' W 002°08'0 0.0
2015-Aug-21 16:33N 46°54' W 002°08'0 0.0
2015-Aug-21 15:33N 46°54' W 002°08'0 0.0
2015-Aug-21 14:33N 46°54' W 002°08'0 0.0
2015-Aug-21 13:28N 46°54' W 002°08'0 0.0
2015-Aug-21 12:32N 46°54' W 002°08'0 0.0
2015-Aug-21 11:34N 46°54' W 002°08'0 0.0
2015-Aug-21 10:34N 46°54' W 002°08'2 1.8
2015-Aug-21 09:33N 46°53' W 002°11'1212.2
2015-Aug-21 08:34N 46°44' W 002°21'0 0.0
2015-Aug-21 07:32N 46°44' W 002°21'0 0.0
2015-Aug-21 06:32N 46°44' W 002°21'8 8.2
2015-Aug-21 05:34N 46°50' W 002°14'5 5.4
2015-Aug-21 04:33N 46°54' W 002°08'0 0.0
2015-Aug-21 03:34N 46°54' W 002°08'0 0.0
2015-Aug-21 02:33N 46°54' W 002°08'0 0.0
2015-Aug-21 01:33N 46°54' W 002°08'0 0.0
2015-Aug-21 00:34N 46°54' W 002°08'0 0.0
2015-Aug-20 23:34N 46°54' W 002°08'0 0.0
2015-Aug-20 22:33N 46°54' W 002°08'0 0.0
2015-Aug-20 21:33N 46°54' W 002°08'0 0.0
2015-Aug-20 20:33N 46°54' W 002°08'0 0.0
2015-Aug-20 19:33N 46°54' W 002°08'0 0.0
2015-Aug-20 18:33N 46°54' W 002°08'0 0.0
2015-Aug-20 17:34N 46°54' W 002°08'5 0.5
2015-Aug-20 07:27N 46°51' W 002°14'5 4.9
2015-Aug-20 06:27N 46°54' W 002°08'0 0.0
2015-Aug-20 05:33N 46°54' W 002°08'0 0.0
2015-Aug-20 04:33N 46°54' W 002°08'0 0.0
2015-Aug-20 03:33N 46°54' W 002°08'0 0.0
2015-Aug-20 02:34N 46°54' W 002°08'0 0.0
2015-Aug-20 01:34N 46°54' W 002°08'  

Dump ship's entire track history